Latest Weather Observations for Casterton

IDV60801

Issued at 9:42 pm EST Sunday 3 July 2022 (issued every 10 minutes, with the page automatically refreshed every 10 minutes)

About weather observations | Map of weather stations | Latest weather observations for VIC | Other Formats
Station Details ID: 090182 Name: CASTERTON Lat: -37.58 Lon: 141.33 Height: 130.6 m
Data from the previous 72 hours. | See also: Recent months at Casterton
Date/Time
EST
Temp
°C
App
Temp
°C
Dew
Point
°C
Rel
Hum
%
Delta-T
°C
Wind Press
QNH
hPa
Press
MSL
hPa
Rain since
9am
mm
Dir  Spd
km/h
Gust
km/h
Spd
kts
Gust
kts
03/09:30pm 9.3 6.2 5.5 77 1.7 SSE 11 15 6 8 1028.1 1028.3 0.0
03/09:00pm 9.4 6.3 5.6 77 1.7 SSE 11 15 6 8 1028.2 1028.4 0.0
03/08:30pm 9.4 5.9 5.4 76 1.8 SSE 13 17 7 9 1028.2 1028.4 0.0
03/08:00pm 9.4 6.7 5.6 77 1.7 SSE 9 13 5 7 1028.2 1028.4 0.0
03/07:30pm 9.4 6.2 5.2 75 1.9 SSE 11 13 6 7 1028.0 1028.2 0.0
03/07:00pm 9.7 6.5 5.1 73 2.1 SSE 11 15 6 8 1027.7 1028.0 0.0
03/06:30pm 10.0 6.4 4.8 70 2.4 SSE 13 17 7 9 1027.7 1028.0 0.0
03/06:00pm 9.9 6.3 4.9 71 2.2 SSE 13 19 7 10 1027.5 1027.8 0.0
03/05:30pm 10.0 6.3 4.6 69 2.4 SSE 13 20 7 11 1027.3 1027.6 0.0
03/05:00pm 10.0 5.6 4.6 69 2.4 SSE 17 24 9 13 1027.4 1027.7 0.0
03/04:30pm 10.3 5.5 4.7 68 2.5 SSE 19 30 10 16 1027.3 1027.6 0.0
03/04:00pm 10.3 5.5 4.9 69 2.4 SSE 19 30 10 16 1027.1 1027.4 0.0
03/03:30pm 10.3 5.5 4.7 68 2.5 SE 19 30 10 16 1027.1 1027.4 0.0
03/03:00pm 10.6 6.4 5.8 72 2.2 SSE 17 26 9 14 1027.2 1027.5 0.0
03/02:30pm 11.2 6.5 5.9 70 2.5 SSE 20 33 11 18 1027.1 1027.4 0.0
03/02:00pm 10.8 5.5 5.1 68 2.6 SSE 22 35 12 19 1027.4 1027.7 0.0
03/01:30pm 11.2 6.3 5.3 67 2.7 SE 20 30 11 16 1027.6 1027.9 0.0
03/01:00pm 11.0 5.7 5.1 67 2.7 SSE 22 35 12 19 1028.0 1028.2 0.0
03/12:30pm 10.4 5.8 5.4 71 2.3 SE 19 32 10 17 1028.5 1028.7 0.0
03/12:00pm 10.1 5.0 5.9 75 1.9 SSE 22 37 12 20 1029.0 1029.2 0.0
03/11:30am 10.2 7.1 7.1 81 1.5 SE 13 20 7 11 1029.4 1029.6 0.0
03/11:00am 9.8 6.2 6.7 81 1.4 SE 15 24 8 13 1029.6 1029.8 0.0
03/10:30am 9.5 6.0 7.3 86 1.0 SSE 15 22 8 12 1029.5 1029.7 0.0
03/10:00am 9.2 6.2 7.5 89 0.8 SSE 13 20 7 11 1029.5 1029.7 0.0
03/09:30am 8.8 4.9 7.1 89 0.8 SE 17 24 9 13 1029.4 1029.6 0.0
03/09:00am 8.6 5.5 7.2 91 0.7 SSE 13 20 7 11 1029.2 1029.4 0.2
03/08:30am 8.4 5.3 7.2 92 0.6 SSE 13 19 7 10 1029.0 1029.2 0.2
03/08:00am 8.1 4.6 7.0 93 0.5 SSE 15 20 8 11 1029.0 1029.2 0.2
03/07:30am 8.1 4.6 7.0 93 0.5 SSE 15 20 8 11 1028.9 1029.1 0.2
03/07:00am 8.0 4.4 6.6 91 0.6 SSE 15 24 8 13 1028.6 1028.8 0.2
03/06:30am 7.9 2.9 6.5 91 0.6 S 22 32 12 17 1028.3 1028.5 0.2
03/06:00am 7.1 4.4 5.6 90 0.7 SSE 9 15 5 8 1028.2 1028.4 0.2
03/05:30am 7.3 4.7 5.9 91 0.6 SSE 9 13 5 7 1028.2 1028.4 0.2
03/05:00am 7.5 3.7 5.8 89 0.8 SSE 15 20 8 11 1028.2 1028.4 0.2
03/04:30am 7.5 4.0 5.3 86 1.0 SSE 13 17 7 9 1028.3 1028.5 0.2
03/04:00am 7.4 3.8 4.9 84 1.1 S 13 17 7 9 1028.4 1028.6 0.2
03/03:30am 7.0 3.6 3.8 80 1.4 SSE 11 15 6 8 1028.5 1028.7 0.2
03/03:00am 7.8 4.8 5.9 88 0.9 S 11 17 6 9 1028.9 1029.1 0.2
03/02:30am 7.5 4.6 6.6 94 0.4 S 11 15 6 8 1029.0 1029.2 0.2
03/02:00am 7.5 4.7 6.8 95 0.3 S 11 15 6 8 1029.0 1029.2 0.2
03/01:30am 7.5 5.1 6.9 96 0.3 SSE 9 15 5 8 1029.2 1029.4 0.2
03/01:00am 7.1 5.0 6.7 97 0.2 SE 7 9 4 5 1029.3 1029.5 0.2
03/12:30am 7.5 5.5 6.9 96 0.3 SSE 7 9 4 5 1029.5 1029.7 0.2
03/12:00am 7.7 4.9 7.1 96 0.3 SSE 11 15 6 8 1029.8 1030.0 0.2
 
Date/Time
EST
Temp
°C
App
Temp
°C
Dew
Point
°C
Rel
Hum
%
Delta-T
°C
Wind Press
QNH
hPa
Press
MSL
hPa
Rain since
9am
mm
Dir  Spd
km/h
Gust
km/h
Spd
kts
Gust
kts
02/11:30pm 7.9 4.4 7.1 95 0.4 SE 15 20 8 11 1029.9 1030.1 0.0
02/11:00pm 7.7 4.9 7.1 96 0.3 SSE 11 17 6 9 1029.8 1030.0 0.0
02/10:30pm 7.5 5.1 7.1 97 0.2 SSE 9 15 5 8 1029.8 1030.0 0.0
02/10:00pm 7.1 4.2 6.7 97 0.2 S 11 15 6 8 1029.9 1030.1 0.0
02/09:30pm 6.1 2.7 5.7 97 0.2 S 13 15 7 8 1029.8 1030.0 0.0
02/09:00pm 5.9 2.8 5.5 97 0.2 S 11 15 6 8 1029.8 1030.0 0.0
02/08:30pm 6.0 3.3 5.4 96 0.3 SSW 9 13 5 7 1029.9 1030.1 0.0
02/08:00pm 5.9 3.1 5.0 94 0.4 SSW 9 13 5 7 1029.7 1029.9 0.0
02/07:30pm 6.0 3.1 4.8 92 0.5 SSW 9 13 5 7 1029.8 1030.0 0.0
02/07:00pm 7.2 4.5 5.7 90 0.7 SSW 9 13 5 7 1029.7 1029.9 0.0
02/06:30pm 8.0 5.0 5.8 86 1.0 SSW 11 15 6 8 1029.6 1029.8 0.0
02/06:00pm 8.9 5.8 5.5 79 1.5 SSW 11 19 6 10 1029.5 1029.7 0.0
02/05:30pm 9.2 6.3 4.8 74 2.0 SSW 9 11 5 6 1029.4 1029.6 0.0
02/05:00pm 9.5 6.7 5.3 75 1.9 SSW 9 11 5 6 1029.4 1029.6 0.0
02/04:30pm 9.4 5.8 4.8 73 2.1 S 13 19 7 10 1029.5 1029.7 0.0
02/04:00pm 10.3 7.8 4.9 69 2.4 S 7 9 4 5 1029.5 1029.7 0.0
02/03:30pm 9.9 5.2 5.3 73 2.1 SSE 19 26 10 14 1029.6 1029.8 0.0
02/03:00pm 9.9 7.3 5.9 76 1.8 SSE 9 13 5 7 1029.6 1029.8 0.0
02/02:30pm 10.3 6.9 5.9 74 2.0 SSE 13 20 7 11 1029.8 1030.0 0.0
02/02:00pm 9.8 5.8 6.5 80 1.5 SSW 17 22 9 12 1030.0 1030.2 0.0
02/01:30pm 10.9 7.5 6.1 72 2.3 S 13 20 7 11 1030.0 1030.2 0.0
02/01:00pm 10.2 5.8 6.7 79 1.6 S 19 26 10 14 1030.5 1030.7 0.0
02/12:30pm 9.6 6.0 6.7 82 1.4 S 15 24 8 13 1030.9 1031.2 0.0
02/12:00pm 9.8 6.2 6.7 81 1.4 SSE 15 20 8 11 1031.2 1031.5 0.0
02/11:30am 9.8 6.7 7.4 85 1.1 S 13 20 7 11 1031.6 1031.9 0.0
02/11:00am 8.7 5.4 6.3 85 1.1 SSW 13 19 7 10 1031.7 1032.0 0.0
02/10:30am 8.1 5.1 6.2 88 0.9 SSW 11 15 6 8 1031.7 1032.0 0.0
02/10:00am 7.6 5.0 6.2 91 0.6 SSW 9 13 5 7 1031.6 1031.9 0.0
02/09:30am 7.3 4.3 5.8 90 0.7 SW 11 17 6 9 1031.3 1031.6 0.0
02/09:00am 6.2 4.1 5.8 97 0.2 SW 6 9 3 5 1031.4 1031.7 0.0
02/08:30am 4.4 1.9 3.7 95 0.3 SW 6 7 3 4 1031.5 1031.8 0.0
02/08:00am 5.1 2.7 4.4 95 0.3 SSW 6 7 3 4 1031.5 1031.8 0.0
02/07:30am 5.8 2.9 4.8 93 0.4 SW 9 11 5 6 1031.5 1031.8 0.0
02/07:00am 6.8 4.4 5.3 90 0.7 SSW 7 11 4 6 1031.4 1031.7 0.0
02/06:30am 6.9 4.1 5.2 89 0.8 SSW 9 13 5 7 1031.2 1031.5 0.0
02/06:00am 7.0 4.2 5.3 89 0.8 SSW 9 13 5 7 1031.0 1031.3 0.0
02/05:30am 7.2 4.0 5.0 86 1.0 SSW 11 15 6 8 1030.9 1031.2 0.0
02/05:00am 6.9 3.7 4.9 87 0.9 SSW 11 15 6 8 1030.9 1031.2 0.0
02/04:30am 6.9 3.3 4.9 87 0.9 SW 13 17 7 9 1030.9 1031.2 0.0
02/04:00am 7.0 3.4 4.8 86 1.0 SSW 13 17 7 9 1031.0 1031.3 0.0
02/03:30am 6.9 3.3 5.1 88 0.8 SW 13 17 7 9 1031.1 1031.4 0.0
02/03:00am 6.8 3.6 5.1 89 0.7 SSW 11 13 6 7 1031.3 1031.6 0.0
02/02:30am 6.9 4.2 5.4 90 0.7 SSW 9 13 5 7 1031.4 1031.7 0.0
02/02:00am 7.0 4.7 5.5 90 0.7 S 7 11 4 6 1031.3 1031.6 0.0
02/01:30am 7.1 4.1 5.9 92 0.5 SW 11 15 6 8 1031.3 1031.6 0.0
02/01:00am 7.1 4.9 6.0 93 0.5 SSW 7 11 4 6 1031.5 1031.8 0.0
02/12:30am 7.1 4.9 6.2 94 0.4 SW 7 9 4 5 1031.5 1031.8 0.0
02/12:00am 7.2 5.0 6.1 93 0.5 SW 7 11 4 6 1031.7 1032.0 0.0
 
Date/Time
EST
Temp
°C
App
Temp
°C
Dew
Point
°C
Rel
Hum
%
Delta-T
°C
Wind Press
QNH
hPa
Press
MSL
hPa
Rain since
9am
mm
Dir  Spd
km/h
Gust
km/h
Spd
kts
Gust
kts
01/11:30pm 7.3 4.4 6.4 94 0.4 SW 11 15 6 8 1031.7 1032.0 0.0
01/11:00pm 7.5 4.6 6.4 93 0.5 SW 11 13 6 7 1031.7 1032.0 0.0
01/10:30pm 7.5 4.6 6.6 94 0.4 SSW 11 15 6 8 1031.7 1032.0 0.0
01/10:00pm 7.5 5.1 6.8 95 0.3 SSW 9 13 5 7 1031.8 1032.1 0.0
01/09:30pm 7.5 5.1 6.9 96 0.3 S 9 13 5 7 1031.9 1032.2 0.0
01/09:00pm 7.3 5.2 6.7 96 0.3 SSW 7 11 4 6 1031.6 1031.9 0.0
01/08:30pm 7.3 5.2 6.6 95 0.3 SSE 7 9 4 5 1031.5 1031.8 0.0
01/08:00pm 7.6 5.2 7.0 96 0.3 SSW 9 13 5 7 1031.5 1031.8 0.0
01/07:30pm 7.7 4.5 7.0 95 0.3 SSW 13 19 7 10 1031.4 1031.7 0.0
01/07:00pm 8.1 4.6 7.2 94 0.4 S 15 22 8 12 1031.3 1031.6 0.0
01/06:30pm 8.3 4.9 7.5 95 0.4 S 15 20 8 11 1031.1 1031.4 0.0
01/06:00pm 8.9 5.4 7.0 88 0.9 S 15 24 8 13 1031.0 1031.3 0.0
01/05:30pm 8.9 7.0 7.5 91 0.7 SW 7 9 4 5 1031.0 1031.3 0.0
01/05:00pm 9.4 7.1 7.5 88 0.9 SSW 9 13 5 7 1030.8 1031.1 0.0
01/04:30pm 9.8 6.7 7.4 85 1.1 SSW 13 17 7 9 1030.7 1031.0 0.0
01/04:00pm 10.2 8.2 7.1 81 1.5 SSE 7 13 4 7 1030.8 1031.1 0.0
01/03:30pm 10.4 7.7 5.8 73 2.1 SSE 9 13 5 7 1030.6 1030.9 0.0
01/03:00pm 10.5 7.4 5.7 72 2.2 ESE 11 13 6 7 1030.7 1031.0 0.0
01/02:30pm 10.7 7.7 6.1 73 2.2 E 11 15 6 8 1030.8 1031.1 0.0
01/02:00pm 11.1 8.8 5.8 70 2.5 SSE 7 13 4 7 1031.0 1031.3 0.0
01/01:30pm 10.6 7.1 5.4 70 2.4 SSE 13 20 7 11 1031.4 1031.7 0.0
01/01:00pm 10.4 6.9 5.6 72 2.2 SSE 13 19 7 10 1031.6 1031.9 0.0
01/12:30pm 10.3 6.8 5.3 71 2.3 SE 13 19 7 10 1031.6 1031.9 0.0
01/12:00pm 10.5 7.2 4.4 66 2.7 SE 11 19 6 10 1031.8 1032.1 0.0
01/11:30am 10.0 5.9 4.4 68 2.5 SSE 15 24 8 13 1031.9 1032.2 0.0
01/11:00am 10.3 6.6 4.5 67 2.6 SE 13 20 7 11 1032.0 1032.3 0.0
01/10:30am 9.9 6.6 4.7 70 2.3 SSE 11 20 6 11 1032.0 1032.3 0.0
01/10:00am 9.6 6.0 4.8 72 2.1 SSE 13 19 7 10 1032.0 1032.3 0.0
01/09:30am 9.4 6.0 4.0 69 2.4 SSE 11 15 6 8 1032.0 1032.3 0.0
01/09:00am 9.0 5.6 4.0 71 2.2 SSE 11 15 6 8 1031.8 1032.0 0.0
01/08:30am 8.8 5.4 4.0 72 2.1 SSE 11 17 6 9 1031.6 1031.8 0.0
01/08:00am 8.7 5.4 4.5 75 1.8 S 11 17 6 9 1031.5 1031.7 0.0
01/07:30am 8.8 5.8 4.0 72 2.1 SSE 9 15 5 8 1031.1 1031.3 0.0
01/07:00am 9.0 5.2 4.0 71 2.2 SSE 13 24 7 13 1030.9 1031.1 0.0
01/06:30am 8.7 5.8 4.9 77 1.7 SSE 9 11 5 6 1030.7 1030.9 0.0
01/06:00am 8.8 5.2 5.0 77 1.7 SSE 13 17 7 9 1030.4 1030.6 0.0
01/05:30am 8.7 5.7 4.3 74 1.9 SSE 9 13 5 7 1030.1 1030.3 0.0
01/05:00am 9.1 4.9 3.9 70 2.3 SSE 15 26 8 14 1030.1 1030.3 0.0
01/04:30am 9.2 5.5 4.4 72 2.1 SSE 13 17 7 9 1030.0 1030.2 0.0
01/04:00am 9.1 5.6 5.5 78 1.6 S 13 20 7 11 1029.9 1030.1 0.0
01/03:30am 9.0 5.7 6.4 84 1.2 S 13 17 7 9 1030.0 1030.2 0.0
01/03:00am 9.2 6.7 6.5 83 1.3 S 9 13 5 7 1029.9 1030.1 0.0
01/02:30am 9.3 6.7 6.2 81 1.4 SSE 9 19 5 10 1029.9 1030.1 0.0
01/02:00am 8.7 6.7 7.2 90 0.7 SSE 7 11 4 6 1029.7 1029.9 0.0
01/01:30am 8.0 6.1 6.9 93 0.5 SSE 6 7 3 4 1029.5 1029.7 0.0
01/01:00am 8.3 6.3 6.9 91 0.6 SSE 7 9 4 5 1029.8 1030.0 0.0
01/12:30am 9.1 6.4 7.4 89 0.8 SSE 11 17 6 9 1029.7 1029.9 0.0
01/12:00am 8.4 5.3 7.3 93 0.5 S 13 17 7 9 1029.7 1029.9 0.0
 
Date/Time
EST
Temp
°C
App
Temp
°C
Dew
Point
°C
Rel
Hum
%
Delta-T
°C
Wind Press
QNH
hPa
Press
MSL
hPa
Rain since
9am
mm
Dir  Spd
km/h
Gust
km/h
Spd
kts
Gust
kts
30/11:30pm 8.5 5.4 7.4 93 0.5 S 13 17 7 9 1029.7 1029.9 0.0
30/11:00pm 8.8 5.7 7.3 90 0.7 S 13 19 7 10 1029.5 1029.7 0.0
30/10:30pm 8.8 6.1 7.3 90 0.7 SSW 11 15 6 8 1029.4 1029.6 0.0
30/10:00pm 8.7 6.4 7.3 91 0.7 S 9 13 5 7 1029.2 1029.4 0.0

Other formats

Comma delimited format used in spreadsheet applications
http://www.bom.gov.au/fwo/IDV60801/IDV60801.95825.axf

JavaScript Object Notation format (JSON) in row-major order
http://www.bom.gov.au/fwo/IDV60801/IDV60801.95825.json

Data quality

Most of these data are generated automatically and are frequently updated. Quality checks on data are not normally performed. It is possible for incorrect values to appear. Refer to information at About Latest Weather Observations and please check the disclaimer before using these data.